createdAt,value
2019-02-22T00:01:22.215Z,93.55
2019-02-22T00:03:49.712Z,93.48
2019-02-22T00:06:17.020Z,93.50
2019-02-22T00:08:44.424Z,93.59
2019-02-22T00:11:11.758Z,93.54
2019-02-22T00:13:39.085Z,93.62
2019-02-22T00:16:06.457Z,93.76
2019-02-22T00:18:33.859Z,93.50
2019-02-22T00:21:01.253Z,93.19
2019-02-22T00:23:28.569Z,93.13
2019-02-22T00:25:56.015Z,93.04
2019-02-22T00:28:23.441Z,92.88
2019-02-22T00:30:50.814Z,92.86
2019-02-22T00:33:18.123Z,92.75
2019-02-22T00:35:45.598Z,92.96
2019-02-22T00:38:12.904Z,93.00
2019-02-22T00:40:40.264Z,92.98
2019-02-22T00:43:07.609Z,93.18
2019-02-22T00:45:34.964Z,93.36
2019-02-22T00:48:02.363Z,93.64
2019-02-22T00:50:29.740Z,93.77
2019-02-22T00:52:57.069Z,93.98
2019-02-22T00:55:24.448Z,94.11
2019-02-22T00:57:51.815Z,94.20
2019-02-22T01:00:19.223Z,94.01
2019-02-22T01:02:46.975Z,93.96
2019-02-22T01:05:14.375Z,94.12
2019-02-22T01:07:41.821Z,94.31
2019-02-22T01:10:09.251Z,94.54
2019-02-22T01:12:36.881Z,94.75
2019-02-22T01:15:04.436Z,94.80
2019-02-22T01:17:31.772Z,94.89
2019-02-22T01:19:59.198Z,95.13
2019-02-22T01:22:26.571Z,95.43
2019-02-22T01:24:54.351Z,95.55
2019-02-22T01:27:21.796Z,95.59
2019-02-22T01:29:49.151Z,95.77
2019-02-22T01:32:16.571Z,95.75
2019-02-22T01:34:43.926Z,95.70
2019-02-22T01:37:11.356Z,95.58
2019-02-22T01:39:38.726Z,95.43
2019-02-22T01:42:06.199Z,95.50
2019-02-22T01:44:33.658Z,95.55
2019-02-22T01:47:01.090Z,95.54
2019-02-22T01:49:28.451Z,95.59
2019-02-22T01:51:55.932Z,95.68
2019-02-22T01:54:23.475Z,95.65
2019-02-22T01:56:51.030Z,95.71
2019-02-22T01:59:18.476Z,95.79
2019-02-22T02:01:45.881Z,95.73
2019-02-22T02:04:13.272Z,95.60
2019-02-22T02:06:40.702Z,95.65
2019-02-22T02:09:08.106Z,95.70
2019-02-22T02:11:35.602Z,95.56
2019-02-22T02:14:03.036Z,95.46
2019-02-22T02:16:30.514Z,95.34
2019-02-22T02:18:57.957Z,95.04
2019-02-22T02:21:25.421Z,95.06
2019-02-22T02:23:52.950Z,95.05
2019-02-22T02:26:20.387Z,95.12
2019-02-22T02:28:47.905Z,95.46
2019-02-22T02:31:15.354Z,95.34
2019-02-22T02:33:42.748Z,95.26
2019-02-22T02:36:10.206Z,95.07
2019-02-22T02:38:37.715Z,95.04
2019-02-22T02:41:10.838Z,94.91
2019-02-22T02:43:34.536Z,94.71
2019-02-22T02:46:01.942Z,94.79
2019-02-22T02:48:29.420Z,94.89
2019-02-22T02:50:56.818Z,94.92
2019-02-22T02:53:24.272Z,94.98
2019-02-22T02:55:51.700Z,95.07
2019-02-22T02:58:19.097Z,94.79
2019-02-22T03:00:46.504Z,94.64
2019-02-22T03:03:14.091Z,94.55
2019-02-22T03:05:53.635Z,94.52
2019-02-22T03:08:22.423Z,94.52
2019-02-22T03:10:49.923Z,94.63
2019-02-22T03:13:17.429Z,94.62
2019-02-22T03:15:45.216Z,94.49
2019-02-22T03:18:12.673Z,94.44
2019-02-22T03:20:40.072Z,94.60
2019-02-22T03:23:07.531Z,94.72
2019-02-22T03:25:34.979Z,94.55
2019-02-22T03:28:02.861Z,94.53
2019-02-22T03:30:30.296Z,94.70
2019-02-22T03:32:57.702Z,94.72
2019-02-22T03:35:25.186Z,94.69
2019-02-22T03:37:52.719Z,94.66
2019-02-22T03:40:20.112Z,94.52
2019-02-22T03:42:47.583Z,94.52
2019-02-22T03:45:14.942Z,94.57
2019-02-22T03:47:42.384Z,94.71
2019-02-22T03:50:09.909Z,94.62
2019-02-22T03:52:46.586Z,94.59
2019-02-22T03:55:13.983Z,94.51
2019-02-22T03:57:41.378Z,94.64
2019-02-22T04:00:09.267Z,94.70
2019-02-22T04:02:36.697Z,94.73
2019-02-22T04:05:04.798Z,94.92
2019-02-22T04:07:32.216Z,94.94
2019-02-22T04:09:59.645Z,95.02
2019-02-22T04:12:27.106Z,94.87
2019-02-22T04:14:54.567Z,95.02
2019-02-22T04:17:21.941Z,94.99
2019-02-22T04:19:49.388Z,94.74
2019-02-22T04:22:16.801Z,94.35
2019-02-22T04:24:44.341Z,94.35
2019-02-22T04:27:11.748Z,94.28
2019-02-22T04:29:39.223Z,94.03
2019-02-22T04:32:06.628Z,93.81
2019-02-22T04:34:34.251Z,93.82
2019-02-22T04:37:01.625Z,93.69
2019-02-22T04:39:29.046Z,93.74
2019-02-22T04:41:58.281Z,93.69
2019-02-22T04:44:25.756Z,93.59
2019-02-22T04:46:53.207Z,93.62
2019-02-22T04:49:20.646Z,93.49
2019-02-22T04:51:48.018Z,93.36
2019-02-22T04:54:15.456Z,93.36
2019-02-22T04:56:43.273Z,93.65
2019-02-22T04:59:10.741Z,93.53
2019-02-22T05:01:38.146Z,93.53
2019-02-22T05:04:07.001Z,93.72
2019-02-22T05:06:34.393Z,93.68
2019-02-22T05:09:01.911Z,93.56
2019-02-22T05:11:29.308Z,93.54
2019-02-22T05:13:56.762Z,93.42
2019-02-22T05:16:24.177Z,93.44
2019-02-22T05:18:51.607Z,93.56
2019-02-22T05:21:19.496Z,93.54
2019-02-22T05:23:46.969Z,93.77
2019-02-22T05:26:14.355Z,93.90
2019-02-22T05:28:41.786Z,93.81
2019-02-22T05:31:09.176Z,93.54
2019-02-22T05:33:36.759Z,93.52
2019-02-22T05:36:04.267Z,93.65
2019-02-22T05:38:31.681Z,93.76
2019-02-22T05:40:59.089Z,93.75
2019-02-22T05:43:26.458Z,93.40
2019-02-22T05:45:53.877Z,93.61
2019-02-22T05:48:21.243Z,93.64
2019-02-22T05:50:48.669Z,93.69
2019-02-22T05:53:16.046Z,93.95
2019-02-22T05:55:44.420Z,93.62
2019-02-22T05:58:11.946Z,93.54
2019-02-22T06:00:39.383Z,93.34
2019-02-22T06:03:06.838Z,93.63
2019-02-22T06:05:34.301Z,93.75
2019-02-22T06:08:01.696Z,93.83
2019-02-22T06:10:29.115Z,93.90
2019-02-22T06:12:57.136Z,93.92
2019-02-22T06:15:24.656Z,93.86
2019-02-22T06:17:52.054Z,93.80
2019-02-22T06:20:19.477Z,93.72
2019-02-22T06:22:46.856Z,93.87
2019-02-22T06:25:14.364Z,93.95
2019-02-22T06:27:41.747Z,94.00
2019-02-22T06:30:09.347Z,94.18
2019-02-22T06:32:36.721Z,94.09
2019-02-22T06:35:04.412Z,94.26
2019-02-22T06:37:31.811Z,94.21
2019-02-22T06:39:59.217Z,93.83
2019-02-22T06:42:26.581Z,93.80
2019-02-22T06:44:54.341Z,93.80
2019-02-22T06:47:22.882Z,93.72
2019-02-22T06:49:50.541Z,93.30
2019-02-22T06:52:17.987Z,93.03
2019-02-22T06:54:45.388Z,92.92
2019-02-22T06:57:12.805Z,93.09
2019-02-22T06:59:40.202Z,93.17
2019-02-22T07:02:07.591Z,93.09
2019-02-22T07:04:35.011Z,92.81
2019-02-22T07:07:02.586Z,92.59
2019-02-22T07:09:29.958Z,92.48
2019-02-22T07:12:02.626Z,92.51
2019-02-22T07:14:30.002Z,92.43
2019-02-22T07:16:57.420Z,92.38
2019-02-22T07:19:24.832Z,92.68
2019-02-22T07:21:53.185Z,92.36
2019-02-22T07:24:20.801Z,92.05
2019-02-22T07:26:48.224Z,92.16
2019-02-22T07:29:15.576Z,92.11
2019-02-22T07:31:43.001Z,92.35
2019-02-22T07:34:10.374Z,92.11
2019-02-22T07:36:37.775Z,92.44
2019-02-22T07:39:05.983Z,92.43
2019-02-22T07:41:33.436Z,92.58
2019-02-22T07:44:00.838Z,92.62
2019-02-22T07:46:28.253Z,92.19
2019-02-22T07:48:55.776Z,92.42
2019-02-22T07:51:23.261Z,92.27
2019-02-22T07:53:50.646Z,91.97
2019-02-22T07:56:19.179Z,91.96
2019-02-22T07:58:46.844Z,91.94
2019-02-22T08:01:14.291Z,91.88
2019-02-22T08:03:41.703Z,91.59
2019-02-22T08:06:09.122Z,91.68
2019-02-22T08:08:36.476Z,91.79
2019-02-22T08:11:03.968Z,91.98
2019-02-22T08:13:31.370Z,91.73
2019-02-22T08:15:58.857Z,91.77
2019-02-22T08:18:26.247Z,91.91
2019-02-22T08:20:53.691Z,92.00
2019-02-22T08:23:21.066Z,92.09
2019-02-22T08:25:48.508Z,91.68
2019-02-22T08:28:15.941Z,92.28
2019-02-22T08:30:43.323Z,91.96
2019-02-22T08:33:10.776Z,92.09
2019-02-22T08:35:38.127Z,92.17
2019-02-22T08:38:05.599Z,92.20
2019-02-22T08:40:32.967Z,92.10
2019-02-22T08:43:00.371Z,92.20
2019-02-22T08:45:27.778Z,92.58
2019-02-22T08:47:55.542Z,92.55
2019-02-22T08:50:22.916Z,92.30
2019-02-22T08:52:50.377Z,92.37
2019-02-22T08:55:17.778Z,92.53
2019-02-22T08:57:45.229Z,92.53
2019-02-22T09:00:14.086Z,92.21
2019-02-22T09:02:41.511Z,92.87
2019-02-22T09:05:08.874Z,92.94
2019-02-22T09:07:36.311Z,93.58
2019-02-22T09:10:04.481Z,94.00
2019-02-22T09:12:31.928Z,93.66
2019-02-22T09:14:59.308Z,94.29
2019-02-22T09:17:26.708Z,94.68
2019-02-22T09:19:54.048Z,94.90
2019-02-22T09:22:23.098Z,94.98
2019-02-22T09:24:50.824Z,94.80
2019-02-22T09:27:18.258Z,94.98
2019-02-22T09:29:45.610Z,94.69
2019-02-22T09:32:13.022Z,94.46
2019-02-22T09:34:40.819Z,94.57
2019-02-22T09:37:08.218Z,94.71
2019-02-22T09:39:35.582Z,94.57
2019-02-22T09:42:03.003Z,94.24
2019-02-22T09:44:30.382Z,94.46
2019-02-22T09:46:58.840Z,94.48
2019-02-22T09:49:26.238Z,93.72
2019-02-22T09:51:53.621Z,93.91
2019-02-22T09:54:21.037Z,93.88
2019-02-22T09:56:48.410Z,93.69
2019-02-22T09:59:15.929Z,93.72
2019-02-22T10:01:43.370Z,93.98
2019-02-22T10:04:10.935Z,93.71
2019-02-22T10:06:38.287Z,93.70
2019-02-22T10:09:06.158Z,93.79
2019-02-22T10:11:33.539Z,94.17
2019-02-22T10:14:06.595Z,94.39
2019-02-22T10:16:30.203Z,94.44
2019-02-22T10:18:57.882Z,94.36
2019-02-22T10:21:25.238Z,94.20
2019-02-22T10:23:52.803Z,94.18
2019-02-22T10:26:21.485Z,94.01
2019-02-22T10:28:49.100Z,94.25
2019-02-22T10:31:16.819Z,94.49
2019-02-22T10:33:44.227Z,94.47
2019-02-22T10:36:11.758Z,94.75
2019-02-22T10:38:39.148Z,95.19
2019-02-22T10:41:06.489Z,95.29
2019-02-22T10:43:33.919Z,95.66
2019-02-22T10:46:01.296Z,95.54
2019-02-22T10:48:28.741Z,95.65
2019-02-22T10:50:56.130Z,95.32
2019-02-22T10:53:23.713Z,94.95
2019-02-22T10:55:51.083Z,94.76
2019-02-22T10:58:19.181Z,94.14
2019-02-22T11:00:46.558Z,93.75
2019-02-22T11:03:13.984Z,93.59
2019-02-22T11:05:41.730Z,93.15
2019-02-22T11:08:09.178Z,92.62
2019-02-22T11:10:36.565Z,92.05
2019-02-22T11:13:03.943Z,92.48
2019-02-22T11:15:31.384Z,92.73
2019-02-22T11:17:59.094Z,92.42
2019-02-22T11:20:26.533Z,92.34
2019-02-22T11:22:53.913Z,91.72
2019-02-22T11:25:21.389Z,91.35
2019-02-22T11:27:48.773Z,91.31
2019-02-22T11:30:16.327Z,92.09
2019-02-22T11:32:43.735Z,92.87
2019-02-22T11:35:11.188Z,93.21
2019-02-22T11:37:38.620Z,93.18
2019-02-22T11:40:06.024Z,93.43
2019-02-22T11:42:33.408Z,93.74
2019-02-22T11:45:00.843Z,93.39
2019-02-22T11:47:28.316Z,93.01
2019-02-22T11:49:55.764Z,92.65
2019-02-22T11:52:23.148Z,92.20
2019-02-22T11:54:50.569Z,91.18
2019-02-22T11:57:19.584Z,91.46
2019-02-22T11:59:47.238Z,91.77
2019-02-22T12:02:14.646Z,92.27
2019-02-22T12:04:42.078Z,92.14
2019-02-22T12:07:10.563Z,91.02
2019-02-22T12:09:37.968Z,90.33
2019-02-22T12:12:05.365Z,89.05
2019-02-22T12:14:32.798Z,88.34
2019-02-22T12:17:00.602Z,87.26
2019-02-22T12:19:28.173Z,87.57
2019-02-22T12:21:55.573Z,88.49
2019-02-22T12:24:23.049Z,87.13
2019-02-22T12:26:50.459Z,85.79
2019-02-22T12:29:17.858Z,84.85
2019-02-22T12:31:45.290Z,86.13
2019-02-22T12:34:13.793Z,87.04
2019-02-22T12:36:41.328Z,86.74
2019-02-22T12:39:08.918Z,86.27
2019-02-22T12:41:36.346Z,86.49
2019-02-22T12:44:03.967Z,86.61
2019-02-22T12:46:31.443Z,86.93
2019-02-22T12:48:58.859Z,86.66
2019-02-22T12:51:26.309Z,84.21
2019-02-22T12:53:53.665Z,84.19
2019-02-22T12:56:27.513Z,84.31
2019-02-22T12:58:50.790Z,83.79
2019-02-22T13:01:18.308Z,83.41
2019-02-22T13:03:46.038Z,84.30
2019-02-22T13:06:13.628Z,83.82
2019-02-22T13:08:41.000Z,84.41
2019-02-22T13:11:09.623Z,83.43
2019-02-22T13:13:37.149Z,83.51
2019-02-22T13:16:12.457Z,83.14
2019-02-22T13:18:39.885Z,80.16
2019-02-22T13:21:07.400Z,79.56
2019-02-22T13:23:34.879Z,79.85
2019-02-22T13:26:02.562Z,80.36
2019-02-22T13:28:30.135Z,79.69
2019-02-22T13:30:57.660Z,80.32
2019-02-22T13:33:25.125Z,80.13
2019-02-22T13:35:52.685Z,79.97
2019-02-22T13:38:20.345Z,80.37
2019-02-22T13:40:49.310Z,80.24
2019-02-22T13:43:17.075Z,79.51
2019-02-22T13:45:44.684Z,80.98
2019-02-22T13:48:12.245Z,80.60
2019-02-22T13:50:39.658Z,79.63
2019-02-22T13:53:08.285Z,81.35
2019-02-22T13:55:35.693Z,79.76
2019-02-22T13:58:05.520Z,79.18
2019-02-22T14:00:33.157Z,79.27
2019-02-22T14:03:00.746Z,79.22
2019-02-22T14:05:28.408Z,79.63
2019-02-22T14:07:56.160Z,79.50
2019-02-22T14:10:24.181Z,79.33
2019-02-22T14:12:51.788Z,79.38
2019-02-22T14:15:19.446Z,79.37
2019-02-22T14:17:47.027Z,78.61
2019-02-22T14:20:14.650Z,78.81
2019-02-22T14:22:42.266Z,79.16
2019-02-22T14:25:10.186Z,79.46
2019-02-22T14:27:37.928Z,79.30
2019-02-22T14:30:06.776Z,80.23
2019-02-22T14:32:34.370Z,79.47
2019-02-22T14:35:02.149Z,79.95
2019-02-22T14:37:31.818Z,79.83
2019-02-22T14:40:03.424Z,79.68
2019-02-22T14:42:29.492Z,79.90
2019-02-22T14:44:57.120Z,79.32
2019-02-22T14:47:24.791Z,79.06
2019-02-22T14:49:55.055Z,79.18
2019-02-22T14:52:22.924Z,79.13
2019-02-22T14:54:50.829Z,78.77
2019-02-22T14:57:18.860Z,79.80
2019-02-22T14:59:47.776Z,78.98
2019-02-22T15:02:15.616Z,79.12
2019-02-22T15:04:43.407Z,79.06
2019-02-22T15:07:11.218Z,78.59
2019-02-22T15:09:39.105Z,78.45
2019-02-22T15:12:07.551Z,79.25
2019-02-22T15:14:35.355Z,81.08
2019-02-22T15:17:22.659Z,81.80
2019-02-22T15:19:50.696Z,83.00
2019-02-22T15:22:21.535Z,83.04
2019-02-22T15:24:49.440Z,83.95
2019-02-22T15:27:17.600Z,84.09
2019-02-22T15:29:45.270Z,83.96
2019-02-22T15:32:13.316Z,84.32
2019-02-22T15:34:41.495Z,84.23
2019-02-22T15:37:09.445Z,83.82
2019-02-22T15:39:37.093Z,83.74
2019-02-22T15:42:05.259Z,83.70
2019-02-22T15:44:33.218Z,83.85
2019-02-22T15:47:11.385Z,83.62
2019-02-22T15:49:31.486Z,84.07
2019-02-22T15:51:59.111Z,83.70
2019-02-22T15:54:26.901Z,83.73
2019-02-22T15:56:54.421Z,83.72
2019-02-22T15:59:22.207Z,83.58
2019-02-22T16:01:55.167Z,84.02
2019-02-22T16:04:34.899Z,84.34
2019-02-22T16:07:02.512Z,84.29
2019-02-22T16:09:30.405Z,84.54
2019-02-22T16:11:58.135Z,84.61
2019-02-22T16:14:25.986Z,84.92
2019-02-22T16:16:53.762Z,84.86
2019-02-22T16:19:21.796Z,85.16
2019-02-22T16:21:49.560Z,85.25
2019-02-22T16:24:17.401Z,85.20
2019-02-22T16:26:45.206Z,85.51
2019-02-22T16:29:12.911Z,85.11
2019-02-22T16:31:40.587Z,85.08
2019-02-22T16:34:08.665Z,85.76
2019-02-22T16:36:36.452Z,85.74
2019-02-22T16:39:07.041Z,85.92
2019-02-22T16:41:34.901Z,86.02
2019-02-22T16:44:02.636Z,86.38
2019-02-22T16:46:35.195Z,86.12
2019-02-22T16:49:01.974Z,86.45
2019-02-22T16:51:29.828Z,86.42
2019-02-22T16:53:59.200Z,86.52
2019-02-22T16:56:26.896Z,86.29
2019-02-22T16:58:54.720Z,86.45
2019-02-22T17:01:22.390Z,86.17
2019-02-22T17:03:50.140Z,86.59
2019-02-22T17:06:17.990Z,86.19
2019-02-22T17:08:45.746Z,86.29
2019-02-22T17:11:13.672Z,86.19
2019-02-22T17:13:41.485Z,85.89
2019-02-22T17:16:09.650Z,85.89
2019-02-22T17:18:37.810Z,86.02
2019-02-22T17:21:05.744Z,85.95
2019-02-22T17:23:33.500Z,85.90
2019-02-22T17:26:01.666Z,85.97
2019-02-22T17:28:29.690Z,85.77
2019-02-22T17:30:57.666Z,85.77
2019-02-22T17:33:25.482Z,85.74
2019-02-22T17:35:53.305Z,85.43
2019-02-22T17:38:20.986Z,85.48
2019-02-22T17:40:48.882Z,85.75
2019-02-22T17:43:16.700Z,85.89
2019-02-22T17:45:45.125Z,85.74
2019-02-22T17:48:12.810Z,85.98
2019-02-22T17:50:40.670Z,86.31
2019-02-22T17:53:09.106Z,85.92
2019-02-22T17:55:36.925Z,86.19
2019-02-22T17:58:04.798Z,85.93
2019-02-22T18:00:32.533Z,86.11
2019-02-22T18:03:00.290Z,86.11
2019-02-22T18:05:28.045Z,85.86
2019-02-22T18:07:55.859Z,85.80
2019-02-22T18:10:23.605Z,85.53
2019-02-22T18:12:51.292Z,85.49
2019-02-22T18:15:19.525Z,85.46
2019-02-22T18:17:47.302Z,85.54
2019-02-22T18:20:15.242Z,85.68
2019-02-22T18:22:43.188Z,85.77
2019-02-22T18:25:11.286Z,85.88
2019-02-22T18:27:39.080Z,85.79
2019-02-22T18:30:08.395Z,85.57
2019-02-22T18:32:36.190Z,85.14
2019-02-22T18:35:04.416Z,85.56
2019-02-22T18:37:33.525Z,85.07
2019-02-22T18:40:01.447Z,85.21
2019-02-22T18:42:29.286Z,85.18
2019-02-22T18:44:57.168Z,84.98
2019-02-22T18:47:24.916Z,84.83
2019-02-22T18:49:52.737Z,84.66
2019-02-22T18:52:20.706Z,85.13
2019-02-22T18:54:48.506Z,85.48
2019-02-22T18:57:16.370Z,85.43
2019-02-22T18:59:44.025Z,85.16
2019-02-22T19:02:14.246Z,85.60
2019-02-22T19:04:42.230Z,85.31
2019-02-22T19:07:10.211Z,84.97
2019-02-22T19:09:38.109Z,85.53
2019-02-22T19:12:06.125Z,85.49
2019-02-22T19:14:33.922Z,85.36
2019-02-22T19:17:03.606Z,85.50
2019-02-22T19:19:31.608Z,85.66
2019-02-22T19:21:59.413Z,86.16
2019-02-22T19:24:33.283Z,86.30
2019-02-22T19:27:01.196Z,86.30
2019-02-22T19:29:30.445Z,86.71
2019-02-22T19:31:58.315Z,86.77
2019-02-22T19:34:26.145Z,86.98
2019-02-22T19:36:54.211Z,86.71
2019-02-22T19:39:22.140Z,86.87
2019-02-22T19:41:50.196Z,86.56
2019-02-22T19:44:18.195Z,86.67
2019-02-22T19:46:46.135Z,86.86
2019-02-22T19:49:14.065Z,87.34
2019-02-22T19:51:42.145Z,87.48
2019-02-22T19:54:10.105Z,87.74
2019-02-22T19:56:37.966Z,88.15
2019-02-22T19:59:08.564Z,88.19
2019-02-22T20:01:36.440Z,88.10
2019-02-22T20:04:06.925Z,88.04
2019-02-22T20:06:35.030Z,88.06
2019-02-22T20:09:05.605Z,88.12
2019-02-22T20:11:33.486Z,88.35
2019-02-22T20:14:01.451Z,88.59
2019-02-22T20:16:29.371Z,88.71
2019-02-22T20:18:57.150Z,88.90
2019-02-22T20:21:25.455Z,88.84
2019-02-22T20:23:53.805Z,89.07
2019-02-22T20:26:22.886Z,89.14
2019-02-22T20:28:50.866Z,89.11
2019-02-22T20:31:20.553Z,89.30
2019-02-22T20:33:48.785Z,89.85
2019-02-22T20:36:27.730Z,89.68
2019-02-22T20:38:48.146Z,89.84
2019-02-22T20:41:15.924Z,89.70
2019-02-22T20:43:43.925Z,89.73
2019-02-22T20:46:12.196Z,89.46
2019-02-22T20:48:40.545Z,89.45
2019-02-22T20:51:08.405Z,89.35
2019-02-22T20:53:36.280Z,89.23
2019-02-22T20:56:04.245Z,89.21
2019-02-22T20:58:32.029Z,89.61
2019-02-22T21:00:59.740Z,89.63
2019-02-22T21:03:27.525Z,89.73
2019-02-22T21:05:55.305Z,89.49
2019-02-22T21:08:24.772Z,89.33
2019-02-22T21:10:52.796Z,89.43
2019-02-22T21:13:20.841Z,89.20
2019-02-22T21:15:48.721Z,89.12
2019-02-22T21:18:16.789Z,88.93
2019-02-22T21:20:44.715Z,89.10
2019-02-22T21:23:12.671Z,88.93
2019-02-22T21:25:40.639Z,89.05
2019-02-22T21:28:08.438Z,89.08
2019-02-22T21:30:36.115Z,89.16
2019-02-22T21:33:04.000Z,89.16
2019-02-22T21:35:31.856Z,89.46
2019-02-22T21:37:59.721Z,89.32
2019-02-22T21:40:30.631Z,89.08
2019-02-22T21:42:58.385Z,89.26
2019-02-22T21:45:26.245Z,89.32
2019-02-22T21:47:55.766Z,89.44
2019-02-22T21:50:23.725Z,89.26
2019-02-22T21:52:51.459Z,89.50
2019-02-22T21:55:19.256Z,89.37
2019-02-22T21:57:47.155Z,89.51
2019-02-22T22:00:16.750Z,89.63
2019-02-22T22:02:44.317Z,89.40
2019-02-22T22:05:11.890Z,89.32
2019-02-22T22:07:39.519Z,89.08
2019-02-22T22:10:07.270Z,89.07
2019-02-22T22:12:34.676Z,89.01
2019-02-22T22:15:02.130Z,88.90
2019-02-22T22:17:29.682Z,88.79
2019-02-22T22:19:57.115Z,88.80
2019-02-22T22:22:24.640Z,88.75
2019-02-22T22:24:52.391Z,88.64
2019-02-22T22:27:19.825Z,89.02
2019-02-22T22:29:47.236Z,88.86
2019-02-22T22:32:14.986Z,88.96
2019-02-22T22:34:42.655Z,89.31
2019-02-22T22:37:14.688Z,89.13
2019-02-22T22:39:42.248Z,89.12
2019-02-22T22:42:09.631Z,88.82
2019-02-22T22:44:37.360Z,88.76
2019-02-22T22:47:04.727Z,88.65
2019-02-22T22:49:32.136Z,88.56
2019-02-22T22:51:59.473Z,88.33
2019-02-22T22:54:26.870Z,88.32
2019-02-22T22:56:54.245Z,88.32
2019-02-22T22:59:21.805Z,88.12
2019-02-22T23:01:49.229Z,88.02
2019-02-22T23:04:16.586Z,88.21
2019-02-22T23:06:44.035Z,88.17
2019-02-22T23:09:19.891Z,88.05
2019-02-22T23:11:47.325Z,88.39
2019-02-22T23:14:14.715Z,88.12
2019-02-22T23:16:42.135Z,88.06
2019-02-22T23:19:09.550Z,88.01
2019-02-22T23:21:36.990Z,88.10
2019-02-22T23:24:04.428Z,88.07
2019-02-22T23:26:31.876Z,87.89
2019-02-22T23:29:01.764Z,87.87
2019-02-22T23:31:28.940Z,87.97
2019-02-22T23:33:56.297Z,88.09
2019-02-22T23:36:24.189Z,87.97
2019-02-22T23:38:51.547Z,87.67
2019-02-22T23:41:18.956Z,87.49
2019-02-22T23:43:46.320Z,87.77
2019-02-22T23:46:13.735Z,88.03
2019-02-22T23:48:41.110Z,87.46
2019-02-22T23:51:08.530Z,87.62
2019-02-22T23:53:35.931Z,87.16
2019-02-22T23:56:03.320Z,87.37
2019-02-22T23:58:30.755Z,87.29
